createdAt,value
2019-03-19T00:00:53.825Z,1.57
2019-03-19T00:03:24.523Z,1.52
2019-03-19T00:05:54.821Z,1.47
2019-03-19T00:08:25.418Z,1.40
2019-03-19T00:10:56.046Z,1.34
2019-03-19T00:13:26.358Z,1.26
2019-03-19T00:15:56.966Z,1.24
2019-03-19T00:18:27.627Z,1.20
2019-03-19T00:20:57.914Z,1.16
2019-03-19T00:23:28.573Z,1.11
2019-03-19T00:25:58.853Z,1.07
2019-03-19T00:28:29.426Z,1.02
2019-03-19T00:31:00.048Z,1.00
2019-03-19T00:33:30.744Z,1.00
2019-03-19T00:36:01.374Z,1.00
2019-03-19T00:38:32.028Z,0.99
2019-03-19T00:41:02.684Z,0.98
2019-03-19T00:43:32.964Z,0.99
2019-03-19T00:46:03.624Z,0.97
2019-03-19T00:48:34.280Z,0.96
2019-03-19T00:51:05.897Z,0.94
2019-03-19T00:53:36.543Z,0.98
2019-03-19T00:56:07.319Z,0.97
2019-03-19T00:58:38.090Z,0.95
2019-03-19T01:01:08.813Z,0.97
2019-03-19T01:03:39.156Z,1.00
2019-03-19T01:06:09.366Z,1.01
2019-03-19T01:08:39.602Z,1.00
2019-03-19T01:11:10.229Z,0.98
2019-03-19T01:13:40.885Z,0.97
2019-03-19T01:16:11.213Z,0.92
2019-03-19T01:18:41.786Z,0.86
2019-03-19T01:21:12.411Z,0.85
2019-03-19T01:23:42.696Z,0.85
2019-03-19T01:26:13.282Z,0.84
2019-03-19T01:28:43.915Z,0.79
2019-03-19T01:31:14.555Z,0.82
2019-03-19T01:33:45.222Z,0.84
2019-03-19T01:36:15.502Z,0.80
2019-03-19T01:38:47.057Z,0.73
2019-03-19T01:41:17.699Z,0.72
2019-03-19T01:43:48.345Z,0.69
2019-03-19T01:46:19.002Z,0.65
2019-03-19T01:48:49.423Z,0.67
2019-03-19T01:51:20.015Z,0.59
2019-03-19T01:53:50.302Z,0.57
2019-03-19T01:56:20.543Z,0.64
2019-03-19T01:58:50.792Z,0.65
2019-03-19T02:01:21.009Z,0.67
2019-03-19T02:03:51.683Z,0.69
2019-03-19T02:06:23.455Z,0.69
2019-03-19T02:08:53.801Z,0.66
2019-03-19T02:11:24.376Z,0.64
2019-03-19T02:13:55.003Z,0.64
2019-03-19T02:16:25.299Z,0.62
2019-03-19T02:18:55.530Z,0.62
2019-03-19T02:21:25.750Z,0.61
2019-03-19T02:23:55.986Z,0.60
2019-03-19T02:26:26.196Z,0.58
2019-03-19T02:28:56.434Z,0.60
2019-03-19T02:31:26.657Z,0.62
2019-03-19T02:33:56.917Z,0.62
2019-03-19T02:36:27.127Z,0.65
2019-03-19T02:38:57.720Z,0.63
2019-03-19T02:41:28.376Z,0.62
2019-03-19T02:43:58.670Z,0.69
2019-03-19T02:46:28.912Z,0.74
2019-03-19T02:48:59.135Z,0.78
2019-03-19T02:51:29.380Z,0.74
2019-03-19T02:54:00.052Z,0.77
2019-03-19T02:56:33.218Z,0.89
2019-03-19T02:59:03.019Z,0.96
2019-03-19T03:01:33.315Z,1.05
2019-03-19T03:04:03.555Z,1.15
2019-03-19T03:06:33.764Z,1.27
2019-03-19T03:09:05.527Z,1.34
2019-03-19T03:11:36.581Z,1.45
2019-03-19T03:14:06.795Z,1.58
2019-03-19T03:16:37.030Z,1.71
2019-03-19T03:19:08.568Z,1.82
2019-03-19T03:21:39.266Z,1.91
2019-03-19T03:24:09.898Z,1.98
2019-03-19T03:26:47.724Z,1.99
2019-03-19T03:29:12.160Z,1.97
2019-03-19T03:31:42.810Z,1.90
2019-03-19T03:34:13.085Z,1.81
2019-03-19T03:36:43.681Z,1.76
2019-03-19T03:39:14.015Z,1.65
2019-03-19T03:41:44.252Z,1.61
2019-03-19T03:44:14.493Z,1.56
2019-03-19T03:46:45.046Z,1.57
2019-03-19T03:49:15.703Z,1.51
2019-03-19T03:51:46.962Z,1.41
2019-03-19T03:54:17.526Z,1.33
2019-03-19T03:57:00.910Z,1.32
2019-03-19T03:59:20.176Z,1.33
2019-03-19T04:01:50.898Z,1.28
2019-03-19T04:04:21.540Z,1.25
2019-03-19T04:06:51.895Z,1.23
2019-03-19T04:09:22.515Z,1.22
2019-03-19T04:11:53.182Z,1.15
2019-03-19T04:14:23.462Z,1.17
2019-03-19T04:16:53.745Z,1.13
2019-03-19T04:19:23.948Z,1.13
2019-03-19T04:21:54.522Z,1.16
2019-03-19T04:24:24.803Z,1.13
2019-03-19T04:26:55.391Z,1.10
2019-03-19T04:29:26.021Z,1.15
2019-03-19T04:31:56.745Z,1.19
2019-03-19T04:34:27.058Z,1.27
2019-03-19T04:36:57.622Z,1.42
2019-03-19T04:39:28.279Z,1.40
2019-03-19T04:41:58.557Z,1.39
2019-03-19T04:44:29.148Z,1.34
2019-03-19T04:46:59.873Z,1.32
2019-03-19T04:49:30.212Z,1.26
2019-03-19T04:52:00.815Z,1.14
2019-03-19T04:54:31.096Z,1.12
2019-03-19T04:57:01.333Z,1.15
2019-03-19T04:59:31.562Z,1.15
2019-03-19T05:02:02.151Z,1.23
2019-03-19T05:04:32.426Z,1.37
2019-03-19T05:07:02.995Z,1.45
2019-03-19T05:09:33.348Z,1.49
2019-03-19T05:12:03.656Z,1.48
2019-03-19T05:14:34.192Z,1.49
2019-03-19T05:17:04.487Z,1.51
2019-03-19T05:19:34.863Z,1.51
2019-03-19T05:22:05.022Z,1.49
2019-03-19T05:24:35.367Z,1.53
2019-03-19T05:27:05.587Z,1.58
2019-03-19T05:29:35.827Z,1.69
2019-03-19T05:32:06.080Z,1.76
2019-03-19T05:34:36.293Z,1.93
2019-03-19T05:37:06.644Z,2.09
2019-03-19T05:39:37.209Z,2.26
2019-03-19T05:42:07.947Z,2.47
2019-03-19T05:44:38.573Z,2.70
2019-03-19T05:47:08.871Z,2.91
2019-03-19T05:49:39.446Z,3.35
2019-03-19T05:52:09.677Z,4.20
2019-03-19T05:54:39.915Z,5.49
2019-03-19T05:57:10.800Z,5.95
2019-03-19T05:59:41.065Z,6.92
2019-03-19T06:02:11.284Z,9.06
2019-03-19T06:04:41.917Z,10.10
2019-03-19T06:07:12.210Z,10.64
2019-03-19T06:09:45.584Z,11.11
2019-03-19T06:12:15.881Z,10.69
2019-03-19T06:14:46.174Z,10.14
2019-03-19T06:17:16.770Z,9.59
2019-03-19T06:19:47.063Z,9.31
2019-03-19T06:22:17.293Z,9.16
2019-03-19T06:24:47.504Z,9.17
2019-03-19T06:27:17.774Z,9.81
2019-03-19T06:29:48.339Z,10.00
2019-03-19T06:32:18.654Z,10.38
2019-03-19T06:34:48.948Z,11.14
2019-03-19T06:37:19.175Z,12.07
2019-03-19T06:39:50.800Z,12.71
2019-03-19T06:42:21.293Z,13.09
2019-03-19T06:44:51.881Z,13.59
2019-03-19T06:47:23.706Z,14.04
2019-03-19T06:49:54.356Z,13.88
2019-03-19T06:52:24.674Z,14.87
2019-03-19T06:54:55.278Z,15.19
2019-03-19T06:57:25.969Z,14.40
2019-03-19T06:59:56.680Z,13.25
2019-03-19T07:02:27.409Z,12.38
2019-03-19T07:04:57.701Z,11.74
2019-03-19T07:07:27.917Z,10.98
2019-03-19T07:09:58.130Z,10.17
2019-03-19T07:12:28.390Z,9.58
2019-03-19T07:14:58.617Z,9.24
2019-03-19T07:17:28.869Z,9.02
2019-03-19T07:19:59.471Z,8.70
2019-03-19T07:22:30.121Z,8.29
2019-03-19T07:25:00.490Z,8.07
2019-03-19T07:27:30.734Z,8.20
2019-03-19T07:30:00.967Z,8.29
2019-03-19T07:32:31.189Z,8.26
2019-03-19T07:35:01.421Z,8.40
2019-03-19T07:37:31.895Z,8.21
2019-03-19T07:40:02.120Z,8.10
2019-03-19T07:42:32.426Z,8.07
2019-03-19T07:45:02.703Z,8.07
2019-03-19T07:47:32.919Z,7.98
2019-03-19T07:50:03.197Z,7.81
2019-03-19T07:52:33.399Z,7.67
2019-03-19T07:55:03.710Z,7.59
2019-03-19T07:57:34.309Z,7.47
2019-03-19T08:00:12.494Z,7.56
2019-03-19T08:02:42.843Z,7.78
2019-03-19T08:05:14.491Z,7.68
2019-03-19T08:07:44.721Z,7.62
2019-03-19T08:10:17.024Z,7.76
2019-03-19T08:12:47.403Z,8.74
2019-03-19T08:15:22.032Z,10.25
2019-03-19T08:17:52.470Z,11.05
2019-03-19T08:20:23.046Z,11.50
2019-03-19T08:22:54.100Z,11.61
2019-03-19T08:25:24.713Z,11.52
2019-03-19T08:27:55.356Z,11.42
2019-03-19T08:30:28.013Z,11.43
2019-03-19T08:32:58.318Z,11.73
2019-03-19T08:35:28.522Z,11.72
2019-03-19T08:37:59.127Z,11.52
2019-03-19T08:40:29.791Z,11.29
2019-03-19T08:43:00.162Z,11.16
2019-03-19T08:45:30.386Z,11.29
2019-03-19T08:48:00.611Z,11.50
2019-03-19T08:50:32.729Z,11.85
2019-03-19T08:53:03.364Z,12.18
2019-03-19T08:55:34.042Z,12.23
2019-03-19T08:58:04.338Z,12.29
2019-03-19T09:00:34.596Z,12.54
2019-03-19T09:03:05.820Z,12.21
2019-03-19T09:05:36.128Z,11.75
2019-03-19T09:08:07.856Z,11.54
2019-03-19T09:10:38.095Z,12.51
2019-03-19T09:13:08.331Z,14.78
2019-03-19T09:15:38.926Z,16.29
2019-03-19T09:18:09.233Z,16.68
2019-03-19T09:20:39.438Z,16.24
2019-03-19T09:23:09.676Z,15.58
2019-03-19T09:25:39.921Z,15.04
2019-03-19T09:28:10.198Z,14.58
2019-03-19T09:30:40.440Z,14.04
2019-03-19T09:33:10.666Z,13.53
2019-03-19T09:35:41.084Z,13.09
2019-03-19T09:38:11.279Z,12.32
2019-03-19T09:40:41.609Z,11.81
2019-03-19T09:43:13.732Z,11.30
2019-03-19T09:45:44.414Z,11.09
2019-03-19T09:48:15.089Z,10.85
2019-03-19T09:50:45.750Z,10.52
2019-03-19T09:53:16.096Z,10.05
2019-03-19T09:55:46.316Z,9.99
2019-03-19T09:58:16.542Z,9.86
2019-03-19T10:00:47.106Z,10.10
2019-03-19T10:03:17.401Z,10.26
2019-03-19T10:05:48.013Z,10.50
2019-03-19T10:08:18.659Z,11.03
2019-03-19T10:10:48.942Z,11.60
2019-03-19T10:13:19.190Z,12.16
2019-03-19T10:15:49.670Z,12.70
2019-03-19T10:18:21.143Z,13.58
2019-03-19T10:20:51.449Z,14.62
2019-03-19T10:23:22.040Z,14.83
2019-03-19T10:25:52.758Z,14.57
2019-03-19T10:28:23.122Z,13.60
2019-03-19T10:30:53.699Z,13.24
2019-03-19T10:33:24.015Z,12.85
2019-03-19T10:35:54.252Z,12.58
2019-03-19T10:38:25.317Z,12.49
2019-03-19T10:40:55.923Z,11.94
2019-03-19T10:43:26.206Z,11.42
2019-03-19T10:45:56.794Z,11.09
2019-03-19T10:48:27.107Z,11.03
2019-03-19T10:50:57.357Z,11.10
2019-03-19T10:53:27.645Z,11.21
2019-03-19T10:55:58.833Z,11.34
2019-03-19T10:58:30.520Z,11.41
2019-03-19T11:01:01.095Z,11.33
2019-03-19T11:03:31.839Z,11.14
2019-03-19T11:06:02.541Z,11.05
2019-03-19T11:08:32.808Z,10.83
2019-03-19T11:11:03.699Z,10.94
2019-03-19T11:13:34.493Z,11.60
2019-03-19T11:16:06.318Z,12.25
2019-03-19T11:18:36.623Z,12.74
2019-03-19T11:21:07.235Z,13.20
2019-03-19T11:23:37.864Z,13.60
2019-03-19T11:26:08.219Z,13.85
2019-03-19T11:28:38.861Z,13.70
2019-03-19T11:31:09.221Z,13.11
2019-03-19T11:33:39.464Z,12.56
2019-03-19T11:36:09.762Z,12.26
2019-03-19T11:38:40.331Z,12.07
2019-03-19T11:41:11.003Z,12.17
2019-03-19T11:43:41.654Z,12.36
2019-03-19T11:46:12.312Z,12.16
2019-03-19T11:48:42.956Z,11.83
2019-03-19T11:51:13.263Z,11.50
2019-03-19T11:53:43.858Z,11.15
2019-03-19T11:56:14.199Z,10.81
2019-03-19T11:58:44.857Z,10.45
2019-03-19T12:01:15.536Z,10.15
2019-03-19T12:03:46.098Z,9.92
2019-03-19T12:06:18.426Z,9.64
2019-03-19T12:08:49.034Z,9.29
2019-03-19T12:11:19.321Z,9.07
2019-03-19T12:13:49.610Z,8.81
2019-03-19T12:16:19.837Z,8.68
2019-03-19T12:18:50.108Z,8.60
2019-03-19T12:21:20.337Z,8.55
2019-03-19T12:23:50.551Z,8.78
2019-03-19T12:26:20.819Z,8.96
2019-03-19T12:28:51.034Z,9.08
2019-03-19T12:31:21.311Z,9.18
2019-03-19T12:33:51.859Z,9.20
2019-03-19T12:36:22.509Z,9.22
2019-03-19T12:38:53.143Z,9.15
2019-03-19T12:41:23.426Z,9.11
2019-03-19T12:43:53.634Z,9.07
2019-03-19T12:46:23.866Z,9.08
2019-03-19T12:48:54.439Z,9.01
2019-03-19T12:51:25.157Z,8.91
2019-03-19T12:53:55.788Z,8.85
2019-03-19T12:56:27.125Z,8.81
2019-03-19T12:58:57.769Z,8.76
2019-03-19T13:01:28.636Z,8.71
2019-03-19T13:03:59.060Z,8.58
2019-03-19T13:06:29.336Z,8.56
2019-03-19T13:08:59.547Z,8.52
2019-03-19T13:11:29.780Z,8.44
2019-03-19T13:14:00.021Z,8.38
2019-03-19T13:16:30.257Z,8.49
2019-03-19T13:19:00.512Z,8.31
2019-03-19T13:21:31.110Z,8.29
2019-03-19T13:24:01.764Z,8.52
2019-03-19T13:26:32.452Z,8.53
2019-03-19T13:29:02.777Z,8.60
2019-03-19T13:31:32.994Z,8.74
2019-03-19T13:34:03.259Z,8.85
2019-03-19T13:36:33.490Z,9.02
2019-03-19T13:39:05.215Z,9.10
2019-03-19T13:41:35.445Z,9.13
2019-03-19T13:44:06.016Z,9.22
2019-03-19T13:46:36.666Z,9.36
2019-03-19T13:49:06.968Z,9.47
2019-03-19T13:51:37.179Z,9.50
2019-03-19T13:54:07.413Z,9.47
2019-03-19T13:56:38.130Z,9.45
2019-03-19T13:59:09.703Z,9.34
2019-03-19T14:01:39.911Z,9.24
2019-03-19T14:04:10.152Z,9.16
2019-03-19T14:06:40.399Z,9.06
2019-03-19T14:09:10.979Z,9.00
2019-03-19T14:11:41.703Z,8.91
2019-03-19T14:14:12.345Z,8.76
2019-03-19T14:16:42.660Z,8.66
2019-03-19T14:19:13.004Z,8.70
2019-03-19T14:21:43.593Z,8.68
2019-03-19T14:24:14.284Z,8.68
2019-03-19T14:26:44.922Z,8.74
2019-03-19T14:29:15.566Z,8.74
2019-03-19T14:31:46.195Z,8.82
2019-03-19T14:34:16.501Z,8.79
2019-03-19T14:36:46.715Z,8.85
2019-03-19T14:39:17.313Z,8.80
2019-03-19T14:41:47.954Z,8.82
2019-03-19T14:44:18.281Z,8.81
2019-03-19T14:46:48.841Z,8.81
2019-03-19T14:49:19.175Z,8.80
2019-03-19T14:51:49.710Z,8.78
2019-03-19T14:54:20.020Z,8.81
2019-03-19T14:56:50.262Z,8.82
2019-03-19T14:59:20.467Z,8.82
2019-03-19T15:01:50.865Z,8.82
2019-03-19T15:04:22.533Z,8.80
2019-03-19T15:06:53.734Z,8.84
2019-03-19T15:09:26.213Z,8.77
2019-03-19T15:11:57.605Z,8.63
2019-03-19T15:14:27.883Z,8.60
2019-03-19T15:17:04.936Z,8.61
2019-03-19T15:19:33.162Z,8.53
2019-03-19T15:22:04.000Z,8.49
2019-03-19T15:24:37.570Z,8.40
2019-03-19T15:27:07.878Z,8.32
2019-03-19T15:29:38.104Z,8.24
2019-03-19T15:32:08.361Z,8.22
2019-03-19T15:34:41.268Z,8.13
2019-03-19T15:37:11.854Z,8.12
2019-03-19T15:39:44.070Z,8.09
2019-03-19T15:42:14.320Z,8.08
2019-03-19T15:44:44.562Z,7.98
2019-03-19T15:47:15.261Z,7.93
2019-03-19T15:49:45.751Z,7.77
2019-03-19T15:52:22.118Z,7.74
2019-03-19T15:54:53.960Z,7.62
2019-03-19T15:57:24.162Z,7.52
2019-03-19T15:59:54.794Z,7.43
2019-03-19T16:02:25.148Z,7.34
2019-03-19T16:04:55.879Z,7.20
2019-03-19T16:07:26.112Z,7.03
2019-03-19T16:09:59.726Z,6.95
2019-03-19T16:12:31.134Z,6.87
2019-03-19T16:15:01.692Z,6.83
2019-03-19T16:17:32.364Z,6.71
2019-03-19T16:20:02.873Z,6.63
2019-03-19T16:22:38.607Z,6.58
2019-03-19T16:25:10.311Z,6.50
2019-03-19T16:27:42.644Z,6.40
2019-03-19T16:30:20.654Z,6.24
2019-03-19T16:32:51.389Z,6.04
2019-03-19T16:35:21.764Z,5.97
2019-03-19T16:37:54.984Z,5.80
2019-03-19T16:40:25.205Z,5.63
2019-03-19T16:42:57.211Z,5.48
2019-03-19T16:45:28.011Z,5.42
2019-03-19T16:47:59.643Z,5.39
2019-03-19T16:50:30.204Z,5.38
2019-03-19T16:53:00.504Z,5.35
2019-03-19T16:55:31.546Z,5.27
2019-03-19T16:58:01.757Z,5.15
2019-03-19T17:00:33.948Z,5.09
2019-03-19T17:03:05.839Z,4.98
2019-03-19T17:05:36.944Z,4.98
2019-03-19T17:08:07.466Z,4.92
2019-03-19T17:10:37.686Z,4.86
2019-03-19T17:13:16.733Z,4.71
2019-03-19T17:15:48.602Z,4.63
2019-03-19T17:18:19.304Z,4.59
2019-03-19T17:20:49.595Z,4.53
2019-03-19T17:23:19.832Z,4.47
2019-03-19T17:25:51.933Z,4.46
2019-03-19T17:28:22.926Z,4.39
2019-03-19T17:30:53.463Z,4.28
2019-03-19T17:33:23.753Z,4.16
2019-03-19T17:35:54.935Z,4.03
2019-03-19T17:38:27.503Z,3.93
2019-03-19T17:41:00.725Z,3.81
2019-03-19T17:43:32.842Z,3.66
2019-03-19T17:46:02.894Z,3.58
2019-03-19T17:48:33.543Z,3.47
2019-03-19T17:51:04.137Z,3.39
2019-03-19T17:53:34.777Z,3.35
2019-03-19T17:56:05.184Z,3.28
2019-03-19T17:58:35.743Z,3.26
2019-03-19T18:01:16.787Z,3.30
2019-03-19T18:03:38.395Z,3.27
2019-03-19T18:06:08.716Z,3.21
2019-03-19T18:08:39.351Z,3.17
2019-03-19T18:11:09.979Z,3.14
2019-03-19T18:13:40.272Z,3.13
2019-03-19T18:16:10.482Z,3.05
2019-03-19T18:18:41.095Z,2.97
2019-03-19T18:21:11.702Z,2.95
2019-03-19T18:23:42.363Z,2.86
2019-03-19T18:26:13.142Z,2.78
2019-03-19T18:28:43.898Z,2.70
2019-03-19T18:31:14.300Z,2.66
2019-03-19T18:33:44.582Z,2.59
2019-03-19T18:36:15.148Z,2.54
2019-03-19T18:38:45.913Z,2.47
2019-03-19T18:41:16.528Z,2.44
2019-03-19T18:43:46.835Z,2.40
2019-03-19T18:46:18.174Z,2.30
2019-03-19T18:48:48.488Z,2.23
2019-03-19T18:51:19.048Z,2.16
2019-03-19T18:53:49.688Z,2.11
2019-03-19T18:56:20.370Z,2.06
2019-03-19T18:58:50.638Z,2.00
2019-03-19T19:01:20.910Z,1.96
2019-03-19T19:03:51.579Z,1.91
2019-03-19T19:06:23.032Z,1.85
2019-03-19T19:08:53.237Z,1.79
2019-03-19T19:11:23.514Z,1.71
2019-03-19T19:13:53.803Z,1.65
2019-03-19T19:16:25.881Z,1.61
2019-03-19T19:18:57.503Z,1.58
2019-03-19T19:21:27.796Z,1.55
2019-03-19T19:23:58.043Z,1.50
2019-03-19T19:26:28.251Z,1.48
2019-03-19T19:28:59.660Z,1.45
2019-03-19T19:31:29.876Z,1.39
2019-03-19T19:34:00.459Z,1.38
2019-03-19T19:36:30.782Z,1.36
2019-03-19T19:39:03.706Z,1.31
2019-03-19T19:41:35.067Z,1.29
2019-03-19T19:44:05.723Z,1.29
2019-03-19T19:46:36.012Z,1.26
2019-03-19T19:49:06.595Z,1.26
2019-03-19T19:51:36.952Z,1.25
2019-03-19T19:54:07.176Z,1.24
2019-03-19T19:56:39.094Z,1.24
2019-03-19T19:59:09.991Z,1.24
2019-03-19T20:01:40.916Z,1.26
2019-03-19T20:04:11.486Z,1.26
2019-03-19T20:06:41.798Z,1.27
2019-03-19T20:09:12.031Z,1.28
2019-03-19T20:11:42.315Z,1.29
2019-03-19T20:14:14.678Z,1.30
2019-03-19T20:16:44.939Z,1.35
2019-03-19T20:19:15.174Z,1.44
2019-03-19T20:21:45.415Z,1.55
2019-03-19T20:24:15.988Z,1.64
2019-03-19T20:26:46.297Z,1.78
2019-03-19T20:29:16.530Z,1.87
2019-03-19T20:31:47.108Z,1.99
2019-03-19T20:34:17.378Z,2.06
2019-03-19T20:36:48.033Z,2.16
2019-03-19T20:39:18.355Z,2.22
2019-03-19T20:41:48.564Z,2.30
2019-03-19T20:44:18.847Z,2.35
2019-03-19T20:46:49.177Z,2.40
2019-03-19T20:49:19.393Z,2.43
2019-03-19T20:51:49.653Z,2.48
2019-03-19T20:54:19.888Z,2.53
2019-03-19T20:56:50.105Z,2.59
2019-03-19T20:59:20.399Z,2.63
2019-03-19T21:01:52.505Z,2.69
2019-03-19T21:04:23.159Z,2.74
2019-03-19T21:06:53.458Z,2.76
2019-03-19T21:09:24.029Z,2.83
2019-03-19T21:11:54.954Z,2.89
2019-03-19T21:14:25.244Z,2.92
2019-03-19T21:16:57.489Z,2.96
2019-03-19T21:19:27.759Z,2.98
2019-03-19T21:22:00.548Z,2.99
2019-03-19T21:24:30.677Z,3.02
2019-03-19T21:27:00.897Z,2.99
2019-03-19T21:29:31.283Z,2.91
2019-03-19T21:32:03.030Z,2.82
2019-03-19T21:34:34.748Z,2.67
2019-03-19T21:37:05.184Z,2.51
2019-03-19T21:39:35.422Z,2.36
2019-03-19T21:42:05.787Z,2.23
2019-03-19T21:44:37.198Z,2.08
2019-03-19T21:47:07.775Z,1.95
2019-03-19T21:49:38.080Z,1.86
2019-03-19T21:52:08.736Z,1.74
2019-03-19T21:54:39.157Z,1.65
2019-03-19T21:57:10.653Z,1.57
2019-03-19T21:59:40.887Z,1.46
2019-03-19T22:02:11.835Z,1.40
2019-03-19T22:04:42.303Z,1.32
2019-03-19T22:07:12.544Z,1.22
2019-03-19T22:09:42.766Z,1.15
2019-03-19T22:12:13.074Z,1.09
2019-03-19T22:14:43.722Z,1.05
2019-03-19T22:17:14.204Z,0.96
2019-03-19T22:19:44.494Z,0.93
2019-03-19T22:22:14.734Z,0.94
2019-03-19T22:24:48.414Z,0.89
2019-03-19T22:27:19.208Z,0.79
2019-03-19T22:29:50.741Z,0.69
2019-03-19T22:32:22.456Z,0.65
2019-03-19T22:34:52.746Z,0.62
2019-03-19T22:37:22.985Z,0.59
2019-03-19T22:39:53.256Z,0.52
2019-03-19T22:42:23.981Z,0.43
2019-03-19T22:44:54.318Z,0.36
2019-03-19T22:47:24.503Z,0.27
2019-03-19T22:49:54.741Z,0.20
2019-03-19T22:52:25.366Z,0.12
2019-03-19T22:54:55.843Z,0.04
2019-03-19T22:57:26.137Z,-0.03
2019-03-19T22:59:56.375Z,-0.12
2019-03-19T23:02:26.625Z,-0.17
2019-03-19T23:04:56.853Z,-0.23
2019-03-19T23:07:27.238Z,-0.32
2019-03-19T23:09:57.468Z,-0.40
2019-03-19T23:12:29.668Z,-0.49
2019-03-19T23:15:00.061Z,-0.57
2019-03-19T23:17:30.297Z,-0.64
2019-03-19T23:20:00.545Z,-0.68
2019-03-19T23:22:30.780Z,-0.74
2019-03-19T23:25:01.040Z,-0.79
2019-03-19T23:27:31.651Z,-0.82
2019-03-19T23:30:02.264Z,-0.88
2019-03-19T23:32:33.344Z,-0.93
2019-03-19T23:35:06.893Z,-0.94
2019-03-19T23:37:37.194Z,-0.93
2019-03-19T23:40:10.563Z,-0.93
2019-03-19T23:42:40.877Z,-0.91
2019-03-19T23:45:13.084Z,-0.87
2019-03-19T23:47:43.443Z,-0.86
2019-03-19T23:50:21.324Z,-0.84
2019-03-19T23:52:51.619Z,-0.82
2019-03-19T23:55:22.197Z,-0.78
2019-03-19T23:57:52.501Z,-0.76
